createdAt,value
2024-05-09T00:03:35.455Z,16.449664429530202
2024-05-09T00:09:49.563Z,15.053691275167786
2024-05-09T00:13:09.868Z,16.476510067114095
2024-05-09T00:16:30.233Z,14.919463087248323
2024-05-09T00:19:50.279Z,16.55704697986577
2024-05-09T00:23:09.935Z,19.516778523489933
2024-05-09T00:30:27.964Z,16.993288590604028
2024-05-09T00:33:53.109Z,16.221476510067113
2024-05-09T00:38:36.503Z,16.06711409395973
2024-05-09T00:41:56.899Z,17.57046979865772
2024-05-09T00:45:16.956Z,17.523489932885905
2024-05-09T00:50:19.036Z,17.530201342281877
2024-05-09T00:53:43.182Z,16.93288590604027
2024-05-09T00:57:03.118Z,17.926174496644297
2024-05-09T01:00:31.495Z,16.818791946308725
2024-05-09T01:03:58.578Z,19.966442953020135
2024-05-09T01:08:19.233Z,20.369127516778523
2024-05-09T01:11:44.494Z,19.778523489932887
2024-05-09T01:15:04.834Z,18.328859060402685
2024-05-09T01:18:24.823Z,19.16778523489933
2024-05-09T01:25:03.508Z,19.65771812080537
2024-05-09T01:38:53.986Z,21.355704697986578
2024-05-09T01:42:14.164Z,21.590604026845636
2024-05-09T01:45:34.469Z,22.77181208053691
2024-05-09T01:48:54.316Z,22.0
2024-05-09T01:52:14.434Z,22.879194630872483
2024-05-09T01:55:44.570Z,23.93959731543624
2024-05-09T01:59:04.448Z,26.120805369127517
2024-05-09T02:02:24.739Z,26.026845637583893
2024-05-09T02:05:52.657Z,28.02013422818792
2024-05-09T02:16:25.760Z,31.536912751677853
2024-05-09T02:19:46.012Z,31.241610738255034
2024-05-09T02:23:27.089Z,30.87248322147651
2024-05-09T02:26:48.618Z,31.02013422818792
2024-05-09T02:38:35.701Z,30.93288590604027
2024-05-09T02:50:34.179Z,30.74496644295302
2024-05-09T02:56:57.726Z,31.2751677852349
2024-05-09T03:01:51.182Z,29.7248322147651
2024-05-09T03:05:11.653Z,30.006711409395972
2024-05-09T03:08:31.799Z,31.08053691275168
2024-05-09T03:11:52.946Z,30.449664429530202
2024-05-09T03:15:13.586Z,31.503355704697988
2024-05-09T03:18:35.842Z,35.080536912751676
2024-05-09T03:21:55.719Z,32.77181208053691
2024-05-09T03:25:15.684Z,32.06711409395973
2024-05-09T03:28:35.770Z,34.577181208053695
2024-05-09T03:31:55.607Z,36.147651006711406
2024-05-09T03:36:32.658Z,34.22818791946309
2024-05-09T03:39:55.450Z,35.46979865771812
2024-05-09T03:43:16.039Z,35.214765100671144
2024-05-09T03:46:43.986Z,36.54362416107382
2024-05-09T03:50:40.763Z,37.939597315436245
2024-05-09T03:56:25.691Z,36.053691275167786
2024-05-09T03:59:45.750Z,37.53020134228188
2024-05-09T04:03:07.473Z,37.328859060402685
2024-05-09T04:06:33.914Z,36.09395973154363
2024-05-09T04:09:54.923Z,37.09395973154363
2024-05-09T04:13:15.952Z,38.19463087248322
2024-05-09T04:16:37.009Z,37.718120805369125
2024-05-09T04:19:57.202Z,36.738255033557046
2024-05-09T04:26:23.222Z,39.38255033557047
2024-05-09T04:29:44.440Z,37.59731543624161
2024-05-09T04:33:05.655Z,41.4496644295302
2024-05-09T04:36:26.237Z,39.147651006711406
2024-05-09T04:39:47.562Z,38.328859060402685
2024-05-09T04:43:11.606Z,38.50335570469799
2024-05-09T04:46:31.235Z,36.04026845637584
2024-05-09T04:50:39.299Z,35.8255033557047
2024-05-09T04:54:01.216Z,35.38255033557047
2024-05-09T04:58:40.895Z,33.97315436241611
2024-05-09T05:02:01.876Z,32.644295302013425
2024-05-09T05:08:34.111Z,32.758389261744966
2024-05-09T05:11:55.215Z,31.684563758389263
2024-05-09T05:15:15.808Z,32.624161073825505
2024-05-09T05:18:36.136Z,31.879194630872483
2024-05-09T05:24:14.513Z,34.48322147651007
2024-05-09T05:27:34.656Z,33.718120805369125
2024-05-09T05:32:56.544Z,34.986577181208055
2024-05-09T05:36:17.514Z,32.89261744966443
2024-05-09T05:39:39.097Z,32.4496644295302
2024-05-09T05:42:59.415Z,33.54362416107382
2024-05-09T05:46:19.987Z,34.34228187919463
2024-05-09T05:58:12.994Z,42.604026845637584
2024-05-09T06:10:09.256Z,42.29530201342282
2024-05-09T06:13:36.688Z,41.95973154362416
2024-05-09T06:16:58.430Z,42.57046979865772
2024-05-09T06:20:24.063Z,40.79865771812081
2024-05-09T06:23:53.390Z,38.46308724832215
2024-05-09T06:27:14.096Z,33.95973154362416
2024-05-09T06:30:39.505Z,33.48993288590604
2024-05-09T06:34:02.400Z,34.375838926174495
2024-05-09T06:37:23.415Z,32.939597315436245
2024-05-09T06:40:45.028Z,35.281879194630875
2024-05-09T06:46:06.055Z,34.8255033557047
2024-05-09T06:49:26.905Z,35.20805369127517
2024-05-09T06:52:49.271Z,43.59731543624161
2024-05-09T06:56:09.413Z,39.88590604026846
2024-05-09T06:59:30.251Z,41.38255033557047
2024-05-09T07:04:28.310Z,37.91275167785235
2024-05-09T07:11:00.077Z,39.18120805369127
2024-05-09T07:14:22.107Z,41.281879194630875
2024-05-09T07:17:42.726Z,43.919463087248324
2024-05-09T07:21:03.639Z,42.852348993288594
2024-05-09T07:27:09.019Z,42.328859060402685
2024-05-09T07:32:48.325Z,38.946308724832214
2024-05-09T07:36:10.261Z,37.26845637583892
2024-05-09T07:41:17.231Z,35.671140939597315
2024-05-09T07:44:48.594Z,37.73154362416108
2024-05-09T07:53:08.886Z,33.85906040268456
2024-05-09T07:56:58.101Z,32.83892617449664
2024-05-09T08:00:23.717Z,34.04026845637584
2024-05-09T08:06:49.387Z,36.23489932885906
2024-05-09T08:10:12.891Z,38.06711409395973
2024-05-09T08:13:35.493Z,38.19463087248322
2024-05-09T08:19:03.998Z,40.84563758389262
2024-05-09T08:24:48.949Z,37.95302013422819
2024-05-09T08:28:42.015Z,34.91275167785235
2024-05-09T08:32:02.773Z,35.02013422818792
2024-05-09T08:38:49.286Z,36.13422818791946
2024-05-09T08:46:25.886Z,40.53691275167785
2024-05-09T08:53:15.589Z,43.30201342281879
2024-05-09T08:56:36.695Z,37.22147651006711
2024-05-09T08:59:59.132Z,38.97986577181208
2024-05-09T09:05:08.744Z,35.48993288590604
2024-05-09T09:08:30.035Z,39.50335570469799
2024-05-09T09:11:50.401Z,37.281879194630875
2024-05-09T09:15:10.447Z,35.48993288590604
2024-05-09T09:18:31.181Z,32.61073825503356
2024-05-09T09:27:14.739Z,31.664429530201343
2024-05-09T09:39:21.609Z,30.073825503355703
2024-05-09T09:42:42.323Z,24.93288590604027
2024-05-09T09:48:58.449Z,23.892617449664428
2024-05-09T09:56:21.155Z,26.154362416107382
2024-05-09T09:59:42.165Z,25.42281879194631
2024-05-09T10:03:02.559Z,27.16778523489933
2024-05-09T10:06:23.186Z,28.697986577181208
2024-05-09T10:09:44.175Z,29.55704697986577
2024-05-09T10:13:04.420Z,30.51006711409396
2024-05-09T10:16:24.158Z,28.973154362416107
2024-05-09T10:23:57.015Z,26.778523489932887
2024-05-09T10:27:17.392Z,24.986577181208055
2024-05-09T10:30:39.415Z,25.48993288590604
2024-05-09T10:34:01.152Z,24.778523489932887
2024-05-09T10:37:22.233Z,22.483221476510067
2024-05-09T10:40:42.717Z,23.248322147651006
2024-05-09T10:44:02.627Z,22.825503355704697
2024-05-09T10:47:22.516Z,18.825503355704697
2024-05-09T10:50:42.349Z,20.671140939597315
2024-05-09T10:54:02.315Z,20.40268456375839
2024-05-09T10:57:22.807Z,22.187919463087248
2024-05-09T11:02:23.730Z,22.77181208053691
2024-05-09T11:05:45.280Z,21.691275167785236
2024-05-09T11:09:05.595Z,22.369127516778523
2024-05-09T11:12:26.395Z,22.85234899328859
2024-05-09T11:15:47.732Z,22.503355704697988
2024-05-09T11:19:09.021Z,24.073825503355703
2024-05-09T11:24:47.469Z,23.288590604026847
2024-05-09T11:28:08.030Z,24.55704697986577
2024-05-09T11:31:29.036Z,22.590604026845636
2024-05-09T11:39:16.624Z,25.93288590604027
2024-05-09T11:42:37.752Z,23.758389261744966
2024-05-09T11:48:00.965Z,24.187919463087248
2024-05-09T11:51:21.165Z,21.87248322147651
2024-05-09T11:54:41.268Z,21.697986577181208
2024-05-09T11:58:01.242Z,22.818791946308725
2024-05-09T12:01:25.067Z,23.691275167785236
2024-05-09T12:04:47.166Z,24.25503355704698
2024-05-09T12:08:07.577Z,23.751677852348994
2024-05-09T12:11:27.572Z,23.818791946308725
2024-05-09T12:14:48.067Z,22.469798657718123
2024-05-09T12:23:15.956Z,22.456375838926174
2024-05-09T12:26:37.599Z,22.79194630872483
2024-05-09T12:29:57.734Z,19.986577181208055
2024-05-09T12:33:18.276Z,19.100671140939596
2024-05-09T12:36:39.566Z,19.879194630872483
2024-05-09T12:40:00.647Z,18.543624161073826
2024-05-09T12:45:16.535Z,17.74496644295302
2024-05-09T12:48:37.192Z,14.885906040268456
2024-05-09T12:56:14.642Z,16.476510067114095
2024-05-09T12:59:35.902Z,16.630872483221477
2024-05-09T13:02:57.337Z,16.328859060402685
2024-05-09T13:06:17.382Z,16.221476510067113
2024-05-09T13:09:38.990Z,19.44295302013423
2024-05-09T13:13:02.052Z,15.939597315436242
2024-05-09T13:16:22.683Z,14.281879194630873
2024-05-09T13:19:44.387Z,13.684563758389261
2024-05-09T13:23:05.562Z,14.516778523489933
2024-05-09T13:26:31.960Z,14.14765100671141
2024-05-09T13:31:23.146Z,14.080536912751677
2024-05-09T13:34:47.776Z,16.322147651006713
2024-05-09T13:38:10.405Z,16.355704697986578
2024-05-09T13:45:51.067Z,14.288590604026846
2024-05-09T13:49:12.934Z,12.825503355704697
2024-05-09T13:52:42.134Z,12.724832214765101
2024-05-09T13:56:44.726Z,12.570469798657719
2024-05-09T14:00:37.932Z,13.771812080536913
2024-05-09T14:07:11.054Z,13.456375838926174
2024-05-09T14:10:36.273Z,12.993288590604028
2024-05-09T14:13:58.995Z,14.87248322147651
2024-05-09T14:17:20.366Z,13.939597315436242
2024-05-09T14:23:54.553Z,14.281879194630873
2024-05-09T14:29:59.609Z,16.516778523489933
2024-05-09T14:33:20.747Z,13.697986577181208
2024-05-09T14:36:42.037Z,12.664429530201343
2024-05-09T14:40:02.952Z,13.053691275167786
2024-05-09T14:43:24.648Z,14.167785234899329
2024-05-09T14:46:46.638Z,13.375838926174497
2024-05-09T14:50:06.999Z,14.791946308724832
2024-05-09T14:53:29.252Z,11.550335570469798
2024-05-09T14:56:50.041Z,12.308724832214764
2024-05-09T15:02:46.627Z,13.389261744966444
2024-05-09T15:06:11.357Z,13.818791946308725
2024-05-09T15:17:53.564Z,12.295302013422818
2024-05-09T15:21:14.546Z,14.221476510067115
2024-05-09T15:24:38.897Z,14.281879194630873
2024-05-09T15:28:05.271Z,13.174496644295303
2024-05-09T15:34:43.688Z,11.818791946308725
2024-05-09T15:38:46.580Z,13.483221476510067
2024-05-09T15:43:05.700Z,13.604026845637584
2024-05-09T15:46:27.676Z,11.241610738255034
2024-05-09T15:49:49.775Z,11.134228187919463
2024-05-09T15:54:54.453Z,13.912751677852349
2024-05-09T15:58:16.283Z,13.348993288590604
2024-05-09T16:01:37.855Z,11.348993288590604
2024-05-09T16:08:00.090Z,11.697986577181208
2024-05-09T16:11:21.211Z,12.375838926174497
2024-05-09T16:14:42.303Z,9.93288590604027
2024-05-09T16:18:31.910Z,11.885906040268456
2024-05-09T16:26:55.849Z,11.89261744966443
2024-05-09T16:30:31.463Z,11.899328859060402
2024-05-09T16:34:00.745Z,15.281879194630873
2024-05-09T16:37:21.949Z,14.080536912751677
2024-05-09T16:40:43.431Z,12.859060402684564
2024-05-09T16:46:33.335Z,14.25503355704698
2024-05-09T16:50:05.144Z,13.38255033557047
2024-05-09T16:53:25.843Z,15.463087248322148
2024-05-09T16:56:48.105Z,17.885906040268456
2024-05-09T17:00:18.101Z,19.120805369127517
2024-05-09T17:06:35.491Z,17.13422818791946
2024-05-09T17:10:26.697Z,18.006711409395972
2024-05-09T17:13:53.403Z,16.42281879194631
2024-05-09T17:17:14.218Z,17.93959731543624
2024-05-09T17:20:54.572Z,17.91275167785235
2024-05-09T17:24:15.693Z,17.436241610738254
2024-05-09T17:30:46.460Z,18.2751677852349
2024-05-09T17:34:32.856Z,18.026845637583893
2024-05-09T17:37:55.401Z,17.187919463087248
2024-05-09T17:41:15.779Z,18.70469798657718
2024-05-09T17:44:37.364Z,18.046979865771814
2024-05-09T17:48:47.006Z,18.456375838926174
2024-05-09T17:52:06.898Z,19.798657718120804
2024-05-09T17:55:27.015Z,21.046979865771814
2024-05-09T17:58:47.982Z,22.892617449664428
2024-05-09T18:02:09.499Z,21.57718120805369
2024-05-09T18:11:01.978Z,18.114093959731544
2024-05-09T18:14:23.616Z,17.825503355704697
2024-05-09T18:17:45.095Z,16.74496644295302
2024-05-09T18:21:05.457Z,16.42281879194631
2024-05-09T18:24:26.582Z,16.040268456375838
2024-05-09T18:27:48.563Z,17.91275167785235
2024-05-09T18:31:10.237Z,17.483221476510067
2024-05-09T18:34:31.391Z,19.02013422818792
2024-05-09T18:37:53.775Z,20.25503355704698
2024-05-09T18:41:16.196Z,20.355704697986578
2024-05-09T18:45:59.716Z,24.033557046979865
2024-05-09T18:49:24.342Z,23.892617449664428
2024-05-09T18:52:45.838Z,25.21476510067114
2024-05-09T18:56:57.570Z,26.604026845637584
2024-05-09T19:00:31.014Z,36.93288590604027
2024-05-09T19:03:56.091Z,29.76510067114094
2024-05-09T19:07:25.189Z,25.7248322147651
2024-05-09T19:10:46.795Z,20.812080536912752
2024-05-09T19:14:08.151Z,20.536912751677853
2024-05-09T19:17:29.636Z,20.798657718120804
2024-05-09T19:22:17.097Z,22.91275167785235
2024-05-09T19:25:37.821Z,25.71812080536913
2024-05-09T19:28:57.877Z,24.308724832214764
2024-05-09T19:32:18.942Z,25.78523489932886
2024-05-09T19:37:30.053Z,26.503355704697988
2024-05-09T19:40:51.035Z,27.100671140939596
2024-05-09T19:44:11.498Z,26.241610738255034
2024-05-09T19:47:38.964Z,26.845637583892618
2024-05-09T19:53:34.337Z,32.38926174496644
2024-05-09T19:56:54.655Z,26.986577181208055
2024-05-09T20:00:21.857Z,29.040268456375838
2024-05-09T20:03:47.406Z,27.76510067114094
2024-05-09T20:08:28.591Z,27.516778523489933
2024-05-09T20:11:49.424Z,26.583892617449663
2024-05-09T20:16:30.844Z,28.38255033557047
2024-05-09T20:19:51.458Z,27.13422818791946
2024-05-09T20:23:11.723Z,27.812080536912752
2024-05-09T20:26:31.262Z,26.355704697986578
2024-05-09T20:29:56.584Z,25.93959731543624
2024-05-09T20:33:16.257Z,27.013422818791945
2024-05-09T20:36:36.564Z,27.14765100671141
2024-05-09T20:39:57.311Z,26.87248322147651
2024-05-09T20:43:18.405Z,26.630872483221477
2024-05-09T20:46:48.133Z,25.107382550335572
2024-05-09T20:50:34.961Z,24.57718120805369
2024-05-09T20:54:05.042Z,24.711409395973153
2024-05-09T20:59:08.530Z,26.483221476510067
2024-05-09T21:02:33.006Z,24.335570469798657
2024-05-09T21:09:05.772Z,24.516778523489933
2024-05-09T21:12:35.484Z,24.86577181208054
2024-05-09T21:16:11.314Z,24.79194630872483
2024-05-09T21:22:37.397Z,23.543624161073826
2024-05-09T21:26:13.705Z,24.78523489932886
2024-05-09T21:29:37.751Z,25.19463087248322
2024-05-09T21:32:57.751Z,24.818791946308725
2024-05-09T21:36:17.762Z,23.55704697986577
2024-05-09T21:59:14.076Z,23.496644295302012
2024-05-09T22:02:34.448Z,23.114093959731544
2024-05-09T22:05:54.936Z,24.221476510067113
2024-05-09T22:09:14.587Z,24.44295302013423
2024-05-09T22:12:36.224Z,24.906040268456376
2024-05-09T22:15:56.591Z,23.93288590604027
2024-05-09T22:19:16.638Z,22.778523489932887
2024-05-09T22:22:36.575Z,21.536912751677853
2024-05-09T22:25:56.929Z,21.85234899328859
2024-05-09T22:29:17.220Z,23.0
2024-05-09T22:34:19.967Z,23.93288590604027
2024-05-09T22:37:41.346Z,24.697986577181208
2024-05-09T22:45:31.515Z,23.543624161073826
2024-05-09T22:48:51.487Z,25.691275167785236
2024-05-09T23:10:16.573Z,29.006711409395972
2024-05-09T23:13:40.999Z,29.959731543624162
2024-05-09T23:17:00.709Z,29.23489932885906
2024-05-09T23:23:42.190Z,30.36241610738255
2024-05-09T23:27:02.148Z,29.691275167785236
2024-05-09T23:30:36.431Z,29.040268456375838
2024-05-09T23:33:59.507Z,28.463087248322147
2024-05-09T23:37:20.064Z,28.973154362416107
2024-05-09T23:44:26.364Z,28.543624161073826
2024-05-09T23:55:28.029Z,29.154362416107382
2024-05-09T23:58:48.890Z,30.409395973154364
